createdAt,value
2022-08-21T00:01:47.580Z,12.50
2022-08-21T00:04:22.112Z,10.27
2022-08-21T00:06:51.123Z,10.70
2022-08-21T00:09:20.208Z,12.80
2022-08-21T00:11:50.587Z,17.60
2022-08-21T00:14:18.977Z,14.33
2022-08-21T00:16:47.025Z,13.13
2022-08-21T00:19:15.138Z,11.13
2022-08-21T00:21:44.269Z,9.73
2022-08-21T00:24:13.067Z,14.93
2022-08-21T00:26:41.159Z,11.20
2022-08-21T00:29:10.627Z,12.63
2022-08-21T00:31:39.043Z,12.80
2022-08-21T00:34:07.815Z,11.60
2022-08-21T00:36:36.340Z,10.30
2022-08-21T00:39:05.113Z,10.27
2022-08-21T00:41:38.505Z,10.33
2022-08-21T00:44:08.541Z,10.10
2022-08-21T00:46:38.626Z,10.63
2022-08-21T00:49:07.899Z,10.37
2022-08-21T00:51:44.520Z,13.23
2022-08-21T00:54:19.014Z,9.93
2022-08-21T00:56:50.178Z,13.93
2022-08-21T00:59:21.146Z,11.13
2022-08-21T01:01:53.241Z,11.27
2022-08-21T01:04:22.733Z,10.80
2022-08-21T01:06:52.508Z,13.93
2022-08-21T01:09:22.049Z,16.07
2022-08-21T01:11:50.527Z,27.23
2022-08-21T01:14:19.889Z,25.47
2022-08-21T01:16:53.251Z,21.57
2022-08-21T01:19:23.435Z,27.17
2022-08-21T01:21:53.371Z,26.90
2022-08-21T01:24:22.225Z,38.50
2022-08-21T01:26:52.016Z,22.73
2022-08-21T01:29:30.485Z,30.73
2022-08-21T01:31:59.277Z,30.40
2022-08-21T01:34:27.443Z,26.63
2022-08-21T01:36:56.863Z,31.27
2022-08-21T01:39:24.887Z,33.70
2022-08-21T01:41:52.912Z,35.70
2022-08-21T01:44:23.231Z,28.23
2022-08-21T01:46:51.504Z,31.30
2022-08-21T01:49:19.940Z,37.30
2022-08-21T01:51:48.114Z,33.63
2022-08-21T01:54:17.590Z,34.73
2022-08-21T01:56:49.482Z,28.80
2022-08-21T01:59:18.052Z,36.20
2022-08-21T02:01:46.176Z,38.90
2022-08-21T02:04:14.960Z,46.60
2022-08-21T02:06:43.256Z,52.83
2022-08-21T02:09:13.640Z,61.43
2022-08-21T02:11:44.081Z,47.97
2022-08-21T02:14:15.242Z,49.27
2022-08-21T02:17:03.371Z,55.83
2022-08-21T02:19:39.523Z,56.13
2022-08-21T02:22:09.831Z,74.20
2022-08-21T02:24:53.795Z,61.60
2022-08-21T02:27:26.847Z,63.83
2022-08-21T02:29:56.688Z,64.27
2022-08-21T02:32:24.972Z,71.10
2022-08-21T02:34:53.324Z,68.17
2022-08-21T02:37:22.087Z,74.37
2022-08-21T02:39:50.762Z,76.43
2022-08-21T02:42:18.960Z,70.70
2022-08-21T02:44:48.900Z,80.90
2022-08-21T02:47:16.956Z,76.50
2022-08-21T02:49:45.072Z,71.67
2022-08-21T02:52:13.195Z,70.67
2022-08-21T02:54:41.371Z,62.93
2022-08-21T02:57:09.761Z,72.77
2022-08-21T02:59:37.877Z,79.70
2022-08-21T03:02:07.444Z,74.30
2022-08-21T03:04:35.560Z,75.63
2022-08-21T03:07:03.613Z,81.43
2022-08-21T03:09:33.189Z,69.37
2022-08-21T03:12:01.218Z,69.80
2022-08-21T03:14:29.261Z,73.33
2022-08-21T03:16:57.284Z,74.20
2022-08-21T03:19:26.746Z,60.60
2022-08-21T03:21:54.800Z,62.00
2022-08-21T03:24:22.848Z,67.03
2022-08-21T03:26:51.007Z,77.07
2022-08-21T03:29:20.712Z,78.43
2022-08-21T03:31:48.708Z,68.60
2022-08-21T03:34:17.261Z,74.57
2022-08-21T03:36:46.679Z,86.30
2022-08-21T03:39:14.728Z,76.90
2022-08-21T03:41:42.841Z,79.97
2022-08-21T03:44:11.042Z,67.63
2022-08-21T03:46:39.888Z,62.30
2022-08-21T03:49:08.579Z,72.53
2022-08-21T03:51:36.634Z,61.90
2022-08-21T03:54:06.131Z,66.50
2022-08-21T03:56:34.513Z,55.33
2022-08-21T03:59:03.676Z,47.73
2022-08-21T04:01:32.312Z,50.50
2022-08-21T04:04:00.890Z,51.73
2022-08-21T04:06:29.156Z,57.37
2022-08-21T04:08:57.277Z,57.57
2022-08-21T04:11:26.676Z,53.73
2022-08-21T04:13:55.531Z,52.27
2022-08-21T04:16:23.591Z,45.40
2022-08-21T04:18:51.765Z,50.70
2022-08-21T04:21:19.891Z,50.37
2022-08-21T04:23:52.971Z,52.90
2022-08-21T04:26:21.152Z,45.20
2022-08-21T04:28:50.662Z,45.13
2022-08-21T04:31:18.961Z,49.40
2022-08-21T04:33:47.068Z,47.17
2022-08-21T04:36:15.164Z,42.03
2022-08-21T04:38:44.622Z,43.13
2022-08-21T04:41:13.366Z,40.30
2022-08-21T04:43:41.889Z,46.40
2022-08-21T04:46:13.501Z,36.80
2022-08-21T04:48:42.623Z,38.97
2022-08-21T04:51:14.758Z,40.50
2022-08-21T04:53:45.980Z,40.73
2022-08-21T04:56:17.994Z,34.43
2022-08-21T04:58:46.211Z,44.57
2022-08-21T05:01:19.586Z,37.00
2022-08-21T05:03:50.739Z,40.00
2022-08-21T05:06:19.296Z,44.10
2022-08-21T05:08:50.733Z,35.80
2022-08-21T05:11:30.091Z,30.73
2022-08-21T05:13:58.194Z,37.60
2022-08-21T05:16:36.688Z,40.47
2022-08-21T05:19:07.103Z,37.10
2022-08-21T05:21:35.341Z,43.70
2022-08-21T05:24:03.749Z,44.63
2022-08-21T05:26:31.927Z,39.40
2022-08-21T05:29:00.811Z,35.90
2022-08-21T05:31:31.483Z,42.40
2022-08-21T05:33:59.747Z,35.00
2022-08-21T05:36:31.764Z,35.70
2022-08-21T05:39:00.013Z,41.50
2022-08-21T05:41:28.059Z,43.93
2022-08-21T05:43:56.136Z,40.30
2022-08-21T05:46:24.299Z,50.87
2022-08-21T05:48:53.792Z,45.27
2022-08-21T05:51:21.906Z,35.13
2022-08-21T05:53:50.220Z,38.83
2022-08-21T05:56:19.349Z,45.73
2022-08-21T05:58:47.528Z,38.23
2022-08-21T06:01:16.885Z,38.70
2022-08-21T06:03:45.337Z,38.50
2022-08-21T06:06:14.791Z,40.27
2022-08-21T06:08:43.019Z,35.73
2022-08-21T06:11:11.302Z,43.10
2022-08-21T06:13:40.072Z,34.53
2022-08-21T06:16:11.517Z,43.00
2022-08-21T06:18:44.674Z,43.97
2022-08-21T06:21:14.730Z,46.93
2022-08-21T06:23:42.931Z,48.13
2022-08-21T06:26:12.675Z,40.90
2022-08-21T06:28:41.493Z,39.57
2022-08-21T06:31:14.821Z,41.27
2022-08-21T06:33:43.351Z,39.37
2022-08-21T06:36:11.411Z,43.60
2022-08-21T06:38:42.375Z,42.70
2022-08-21T06:41:19.058Z,42.30
2022-08-21T06:43:52.555Z,46.87
2022-08-21T06:46:20.665Z,48.27
2022-08-21T06:48:48.780Z,37.63
2022-08-21T06:51:17.193Z,40.50
2022-08-21T06:53:47.273Z,46.27
2022-08-21T06:56:15.545Z,48.70
2022-08-21T06:58:43.664Z,41.10
2022-08-21T07:01:12.014Z,40.17
2022-08-21T07:03:43.118Z,42.33
2022-08-21T07:06:13.140Z,49.30
2022-08-21T07:08:41.333Z,41.63
2022-08-21T07:11:14.882Z,37.30
2022-08-21T07:13:43.229Z,39.27
2022-08-21T07:16:11.591Z,43.57
2022-08-21T07:18:39.766Z,42.47
2022-08-21T07:21:09.550Z,30.27
2022-08-21T07:23:41.253Z,28.17
2022-08-21T07:26:12.187Z,32.43
2022-08-21T07:28:41.046Z,43.07
2022-08-21T07:31:10.885Z,41.83
2022-08-21T07:33:39.046Z,46.70
2022-08-21T07:36:07.904Z,37.17
2022-08-21T07:38:36.078Z,60.67
2022-08-21T07:41:15.983Z,31.97
2022-08-21T07:43:46.371Z,39.40
2022-08-21T07:46:15.516Z,39.53
2022-08-21T07:48:43.981Z,42.53
2022-08-21T07:51:13.786Z,35.17
2022-08-21T07:53:43.549Z,33.23
2022-08-21T07:56:12.290Z,33.60
2022-08-21T07:58:40.420Z,33.43
2022-08-21T08:01:10.080Z,31.00
2022-08-21T08:03:39.705Z,30.57
2022-08-21T08:06:12.359Z,26.97
2022-08-21T08:08:41.668Z,35.27
2022-08-21T08:11:11.907Z,26.67
2022-08-21T08:13:44.668Z,34.27
2022-08-21T08:16:14.628Z,28.83
2022-08-21T08:18:43.126Z,28.03
2022-08-21T08:21:12.106Z,22.57
2022-08-21T08:23:40.917Z,21.97
2022-08-21T08:26:09.515Z,25.10
2022-08-21T08:28:37.588Z,24.50
2022-08-21T08:31:05.953Z,20.70
2022-08-21T08:33:35.679Z,21.43
2022-08-21T08:36:08.081Z,20.30
2022-08-21T08:38:36.413Z,20.20
2022-08-21T08:41:14.025Z,18.50
2022-08-21T08:43:45.550Z,15.97
2022-08-21T08:46:18.207Z,19.80
2022-08-21T08:48:54.751Z,18.27
2022-08-21T08:51:27.519Z,20.63
2022-08-21T08:54:00.668Z,16.90
2022-08-21T08:56:32.027Z,13.80
2022-08-21T08:59:05.032Z,17.23
2022-08-21T09:01:38.173Z,12.30
2022-08-21T09:04:08.641Z,13.10
2022-08-21T09:06:48.472Z,18.00
2022-08-21T09:09:31.085Z,8.63
2022-08-21T09:12:04.869Z,12.83
2022-08-21T09:14:48.212Z,11.90
2022-08-21T09:17:35.324Z,10.00
2022-08-21T09:20:25.579Z,11.80
2022-08-21T09:23:06.341Z,11.60
2022-08-21T09:25:43.684Z,10.10
2022-08-21T09:28:15.716Z,10.70
2022-08-21T09:30:44.085Z,11.37
2022-08-21T09:33:16.981Z,14.13
2022-08-21T09:35:54.007Z,8.80
2022-08-21T09:38:29.863Z,11.20
2022-08-21T09:41:01.186Z,10.47
2022-08-21T09:43:30.573Z,17.40
2022-08-21T09:46:11.811Z,7.50
2022-08-21T09:48:47.243Z,7.63
2022-08-21T09:51:20.686Z,6.50
2022-08-21T09:53:52.689Z,15.23
2022-08-21T09:56:44.655Z,6.67
2022-08-21T09:59:22.685Z,8.07
2022-08-21T10:01:53.642Z,8.50
2022-08-21T10:04:25.043Z,12.10
2022-08-21T10:06:54.728Z,8.23
2022-08-21T10:09:26.409Z,6.30
2022-08-21T10:12:02.728Z,5.33
2022-08-21T10:14:45.336Z,5.43
2022-08-21T10:17:20.415Z,8.30
2022-08-21T10:19:58.014Z,5.80
2022-08-21T10:22:36.719Z,7.80
2022-08-21T10:25:13.785Z,9.00
2022-08-21T10:27:50.880Z,9.40
2022-08-21T10:30:23.602Z,7.50
2022-08-21T10:33:03.110Z,3.63
2022-08-21T10:35:34.948Z,8.23
2022-08-21T10:38:55.281Z,5.53
2022-08-21T10:41:41.060Z,5.40
2022-08-21T10:44:23.011Z,13.90
2022-08-21T10:46:56.608Z,8.40
2022-08-21T10:49:34.539Z,5.63
2022-08-21T10:52:21.935Z,9.27
2022-08-21T10:54:57.060Z,8.70
2022-08-21T10:57:32.370Z,3.87
2022-08-21T11:00:07.964Z,4.03
2022-08-21T11:02:42.441Z,6.23
2022-08-21T11:05:15.947Z,5.60
2022-08-21T11:07:49.948Z,6.20
2022-08-21T11:10:24.841Z,6.33
2022-08-21T11:12:57.961Z,6.67
2022-08-21T11:15:37.492Z,8.20
2022-08-21T11:18:18.270Z,8.30
2022-08-21T11:20:53.644Z,7.80
2022-08-21T11:23:28.346Z,7.07
2022-08-21T11:26:04.181Z,9.10
2022-08-21T11:28:36.683Z,6.53
2022-08-21T11:31:19.381Z,4.20
2022-08-21T11:34:01.357Z,7.37
2022-08-21T11:36:43.017Z,5.00
2022-08-21T11:39:24.382Z,7.43
2022-08-21T11:42:08.425Z,5.23
2022-08-21T11:44:49.584Z,4.13
2022-08-21T11:47:25.633Z,3.43
2022-08-21T11:50:05.186Z,6.17
2022-08-21T11:52:53.710Z,5.33
2022-08-21T11:55:29.276Z,7.93
2022-08-21T11:58:03.163Z,9.30
2022-08-21T12:00:35.356Z,3.93
2022-08-21T12:03:11.604Z,4.67
2022-08-21T12:05:42.939Z,3.90
2022-08-21T12:08:15.196Z,3.73
2022-08-21T12:10:48.485Z,4.13
2022-08-21T12:13:41.992Z,8.83
2022-08-21T12:16:13.803Z,5.33
2022-08-21T12:18:43.255Z,4.67
2022-08-21T12:21:25.067Z,7.70
2022-08-21T12:24:04.187Z,3.87
2022-08-21T12:26:34.530Z,5.20
2022-08-21T12:29:24.095Z,5.30
2022-08-21T12:31:58.776Z,4.90
2022-08-21T12:34:33.651Z,3.90
2022-08-21T12:37:05.461Z,6.93
2022-08-21T12:39:38.128Z,5.27
2022-08-21T12:42:14.451Z,3.43
2022-08-21T12:44:47.178Z,2.90
2022-08-21T12:47:31.634Z,2.53
2022-08-21T12:50:06.736Z,2.37
2022-08-21T12:52:39.559Z,4.50
2022-08-21T12:55:09.556Z,4.10
2022-08-21T12:57:42.919Z,2.97
2022-08-21T13:00:16.959Z,4.47
2022-08-21T13:02:48.982Z,5.23
2022-08-21T13:05:22.352Z,5.70
2022-08-21T13:07:51.272Z,2.63
2022-08-21T13:10:25.062Z,2.10
2022-08-21T13:12:55.220Z,3.47
2022-08-21T13:15:33.247Z,2.67
2022-08-21T13:18:03.802Z,4.10
2022-08-21T13:20:35.289Z,3.97
2022-08-21T13:23:04.284Z,2.70
2022-08-21T13:25:37.802Z,4.83
2022-08-21T13:28:12.511Z,6.77
2022-08-21T13:30:45.697Z,1.93
2022-08-21T13:33:17.580Z,3.50
2022-08-21T13:35:51.262Z,4.10
2022-08-21T13:38:21.492Z,2.17
2022-08-21T13:40:58.731Z,1.80
2022-08-21T13:43:30.575Z,4.17
2022-08-21T13:46:01.590Z,2.57
2022-08-21T13:48:33.917Z,2.20
2022-08-21T13:51:02.606Z,5.00
2022-08-21T13:53:32.989Z,1.80
2022-08-21T13:56:02.344Z,1.90
2022-08-21T13:58:32.314Z,5.23
2022-08-21T14:01:06.499Z,2.77
2022-08-21T14:03:40.934Z,3.33
2022-08-21T14:06:18.865Z,2.30
2022-08-21T14:08:52.016Z,1.83
2022-08-21T14:11:20.696Z,3.43
2022-08-21T14:13:53.252Z,2.67
2022-08-21T14:16:27.743Z,11.50
2022-08-21T14:19:11.729Z,2.20
2022-08-21T14:21:44.566Z,2.07
2022-08-21T14:24:15.505Z,2.60
2022-08-21T14:26:52.559Z,2.53
2022-08-21T14:29:23.519Z,3.70
2022-08-21T14:31:56.180Z,2.20
2022-08-21T14:34:26.618Z,3.17
2022-08-21T14:36:55.276Z,4.13
2022-08-21T14:39:23.616Z,5.90
2022-08-21T14:41:54.907Z,2.10
2022-08-21T14:44:23.015Z,2.70
2022-08-21T14:46:55.215Z,3.30
2022-08-21T14:49:28.768Z,6.90
2022-08-21T14:51:59.214Z,4.70
2022-08-21T14:54:31.607Z,3.27
2022-08-21T14:57:02.658Z,3.23
2022-08-21T14:59:32.045Z,7.00
2022-08-21T15:02:00.113Z,3.33
2022-08-21T15:04:29.508Z,5.63
2022-08-21T15:06:58.899Z,3.13
2022-08-21T15:09:26.958Z,6.53
2022-08-21T15:11:57.798Z,3.07
2022-08-21T15:14:28.714Z,5.40
2022-08-21T15:16:56.896Z,3.73
2022-08-21T15:19:25.031Z,5.30
2022-08-21T15:21:55.011Z,4.63
2022-08-21T15:24:23.389Z,2.40
2022-08-21T15:26:52.429Z,4.93
2022-08-21T15:29:22.968Z,2.90
2022-08-21T15:31:57.581Z,3.20
2022-08-21T15:34:28.255Z,2.20
2022-08-21T15:36:58.741Z,5.50
2022-08-21T15:39:30.076Z,4.10
2022-08-21T15:41:59.191Z,1.93
2022-08-21T15:44:30.075Z,6.43
2022-08-21T15:46:58.382Z,2.00
2022-08-21T15:49:26.569Z,6.00
2022-08-21T15:51:54.686Z,2.37
2022-08-21T15:54:24.096Z,3.17
2022-08-21T15:56:52.898Z,3.50
2022-08-21T15:59:23.301Z,5.50
2022-08-21T16:01:52.596Z,1.97
2022-08-21T16:04:25.631Z,4.50
2022-08-21T16:06:57.713Z,3.00
2022-08-21T16:09:31.338Z,2.07
2022-08-21T16:12:00.700Z,2.57
2022-08-21T16:14:30.275Z,3.53
2022-08-21T16:16:58.824Z,4.13
2022-08-21T16:19:28.519Z,1.77
2022-08-21T16:21:56.756Z,2.20
2022-08-21T16:24:24.953Z,4.93
2022-08-21T16:26:57.653Z,5.43
2022-08-21T16:29:35.012Z,1.83
2022-08-21T16:32:03.801Z,2.90
2022-08-21T16:34:32.069Z,1.70
2022-08-21T16:37:00.055Z,4.73
2022-08-21T16:39:28.254Z,2.57
2022-08-21T16:41:57.761Z,2.13
2022-08-21T16:44:25.856Z,11.43
2022-08-21T16:46:59.508Z,2.13
2022-08-21T16:49:27.842Z,2.80
2022-08-21T16:51:55.943Z,1.57
2022-08-21T16:54:24.125Z,1.60
2022-08-21T16:56:52.359Z,1.90
2022-08-21T16:59:24.131Z,1.90
2022-08-21T17:01:54.218Z,2.13
2022-08-21T17:04:22.573Z,4.67
2022-08-21T17:06:50.679Z,4.93
2022-08-21T17:09:19.388Z,4.97
2022-08-21T17:11:50.290Z,2.40
2022-08-21T17:14:22.163Z,3.47
2022-08-21T17:16:56.463Z,9.47
2022-08-21T17:19:24.848Z,4.20
2022-08-21T17:21:52.849Z,3.50
2022-08-21T17:24:21.156Z,5.17
2022-08-21T17:26:50.269Z,4.00
2022-08-21T17:29:21.173Z,4.13
2022-08-21T17:31:49.264Z,4.37
2022-08-21T17:34:18.678Z,2.70
2022-08-21T17:36:46.781Z,2.50
2022-08-21T17:39:22.073Z,3.87
2022-08-21T17:41:52.915Z,5.20
2022-08-21T17:44:26.836Z,5.70
2022-08-21T17:46:55.160Z,3.17
2022-08-21T17:49:25.385Z,8.20
2022-08-21T17:51:53.530Z,3.03
2022-08-21T17:54:21.616Z,2.60
2022-08-21T17:56:49.740Z,2.73
2022-08-21T17:59:17.833Z,2.50
2022-08-21T18:01:48.172Z,4.93
2022-08-21T18:04:17.565Z,2.07
2022-08-21T18:06:47.435Z,1.90
2022-08-21T18:09:15.783Z,3.07
2022-08-21T18:11:44.881Z,2.50
2022-08-21T18:14:13.781Z,2.60
2022-08-21T18:16:42.576Z,2.20
2022-08-21T18:19:16.004Z,2.40
2022-08-21T18:21:45.297Z,4.70
2022-08-21T18:24:15.149Z,2.90
2022-08-21T18:26:43.619Z,2.40
2022-08-21T18:29:16.896Z,3.53
2022-08-21T18:31:47.086Z,4.17
2022-08-21T18:34:26.287Z,2.43
2022-08-21T18:36:55.855Z,7.77
2022-08-21T18:39:36.353Z,2.27
2022-08-21T18:42:10.040Z,3.53
2022-08-21T18:44:38.871Z,2.20
2022-08-21T18:47:12.211Z,2.40
2022-08-21T18:49:41.077Z,5.63
2022-08-21T18:52:09.918Z,5.30
2022-08-21T18:54:39.959Z,6.43
2022-08-21T18:57:11.614Z,2.43
2022-08-21T18:59:42.171Z,2.30
2022-08-21T19:02:11.301Z,3.17
2022-08-21T19:04:44.688Z,2.77
2022-08-21T19:07:30.540Z,2.67
2022-08-21T19:10:24.351Z,12.00
2022-08-21T19:12:48.556Z,7.33
2022-08-21T19:15:22.668Z,2.80
2022-08-21T19:17:52.568Z,2.57
2022-08-21T19:20:26.225Z,2.83
2022-08-21T19:22:56.292Z,2.80
2022-08-21T19:25:51.795Z,6.57
2022-08-21T19:28:27.176Z,7.70
2022-08-21T19:30:58.968Z,2.67
2022-08-21T19:33:33.981Z,2.40
2022-08-21T19:36:05.439Z,3.97
2022-08-21T19:38:34.080Z,2.73
2022-08-21T19:41:04.470Z,3.17
2022-08-21T19:43:35.228Z,2.30
2022-08-21T19:46:04.287Z,3.57
2022-08-21T19:48:33.623Z,2.80
2022-08-21T19:51:01.767Z,2.40
2022-08-21T19:53:29.886Z,11.90
2022-08-21T19:55:58.120Z,3.67
2022-08-21T19:58:36.010Z,3.53
2022-08-21T20:01:14.127Z,4.20
2022-08-21T20:03:57.896Z,9.90
2022-08-21T20:06:26.744Z,4.50
2022-08-21T20:08:56.080Z,2.80
2022-08-21T20:14:22.335Z,3.20
2022-08-21T20:16:52.576Z,3.07
2022-08-21T20:19:21.848Z,2.47
2022-08-21T20:21:50.594Z,3.47
2022-08-21T20:24:19.016Z,5.23
2022-08-21T20:26:49.301Z,3.23
2022-08-21T20:29:24.510Z,3.30
2022-08-21T20:32:02.474Z,4.40
2022-08-21T20:34:32.275Z,5.80
2022-08-21T20:37:02.249Z,4.17
2022-08-21T20:39:33.831Z,5.70
2022-08-21T20:42:01.976Z,2.30
2022-08-21T20:44:33.850Z,4.33
2022-08-21T20:47:04.805Z,3.13
2022-08-21T20:49:42.765Z,4.10
2022-08-21T20:52:11.151Z,3.77
2022-08-21T20:54:49.468Z,2.83
2022-08-21T20:57:23.088Z,3.70
2022-08-21T20:59:58.005Z,4.10
2022-08-21T21:02:37.387Z,3.33
2022-08-21T21:05:12.871Z,6.63
2022-08-21T21:07:54.416Z,3.50
2022-08-21T21:10:29.484Z,3.77
2022-08-21T21:13:02.643Z,5.07
2022-08-21T21:15:35.553Z,3.33
2022-08-21T21:18:14.022Z,4.47
2022-08-21T21:20:49.882Z,5.10
2022-08-21T21:23:24.389Z,3.90
2022-08-21T21:25:58.935Z,5.80
2022-08-21T21:28:35.081Z,6.83
2022-08-21T21:31:04.777Z,4.03
2022-08-21T21:33:32.894Z,3.67
2022-08-21T21:36:13.444Z,2.50
2022-08-21T21:38:59.122Z,3.00
2022-08-21T21:41:35.083Z,7.30
2022-08-21T21:44:22.345Z,4.00
2022-08-21T21:47:00.159Z,2.37
2022-08-21T21:49:49.654Z,2.60
2022-08-21T21:52:43.032Z,2.10
2022-08-21T21:55:28.234Z,3.57
2022-08-21T21:58:10.804Z,3.97
2022-08-21T22:00:52.365Z,6.17
2022-08-21T22:03:27.235Z,10.10
2022-08-21T22:06:00.450Z,2.83
2022-08-21T22:08:40.479Z,2.27
2022-08-21T22:11:29.446Z,2.30
2022-08-21T22:14:05.439Z,6.20
2022-08-21T22:16:35.378Z,2.40
2022-08-21T22:19:14.758Z,2.03
2022-08-21T22:21:48.937Z,5.20
2022-08-21T22:24:22.425Z,3.30
2022-08-21T22:26:54.864Z,2.50
2022-08-21T22:29:24.307Z,2.30
2022-08-21T22:32:11.943Z,3.43
2022-08-21T22:34:41.337Z,2.07
2022-08-21T22:37:12.917Z,9.53
2022-08-21T22:39:43.765Z,3.70
2022-08-21T22:42:21.048Z,3.17
2022-08-21T22:44:51.699Z,3.13
2022-08-21T22:47:26.066Z,3.70
2022-08-21T22:49:59.653Z,5.83
2022-08-21T22:52:34.659Z,2.80
2022-08-21T22:55:16.869Z,1.80
2022-08-21T22:57:46.831Z,1.93
2022-08-21T23:00:38.314Z,3.60
2022-08-21T23:03:07.107Z,4.67
2022-08-21T23:05:46.330Z,2.23
2022-08-21T23:08:25.028Z,1.30
2022-08-21T23:10:59.710Z,3.17
2022-08-21T23:13:38.401Z,1.73
2022-08-21T23:16:15.593Z,1.53
2022-08-21T23:18:52.800Z,3.43
2022-08-21T23:21:30.905Z,1.90
2022-08-21T23:24:21.797Z,1.57
2022-08-21T23:27:00.002Z,2.80
2022-08-21T23:29:37.107Z,1.63
2022-08-21T23:32:18.963Z,1.70
2022-08-21T23:35:00.385Z,2.97
2022-08-21T23:37:51.624Z,3.90
2022-08-21T23:40:36.224Z,1.60
2022-08-21T23:43:15.320Z,4.53
2022-08-21T23:46:02.497Z,2.47
2022-08-21T23:48:42.313Z,2.87
2022-08-21T23:51:13.776Z,1.70
2022-08-21T23:53:57.722Z,1.37
2022-08-21T23:56:39.788Z,2.37
2022-08-21T23:59:20.259Z,2.20
